Time;durP1;ratioP1;P1;durP2;ratioP2;P2;SDS_P1;SDS_P2;PMS_P1;PMS_P2;Temp;Humidity;BMP_temperature;BMP_pressure;BME280_temperature;BME280_humidity;BME280_pressure;Samples;Min_cycle;Max_cycle;Signal;HPM_P1;HPM_P2
2021/05/12 00:00:22;;;;;;;1.53;1.43;;;14.50;99.90;;;;;;5053846;28;20168;-61
2021/05/12 00:02:48;;;;;;;1.50;1.40;;;14.60;99.90;;;;;;5054078;28;20179;-61
2021/05/12 00:05:17;;;;;;;1.70;1.60;;;14.60;99.90;;;;;;5054273;28;20805;-62
2021/05/12 00:07:42;;;;;;;1.93;1.73;;;14.60;99.90;;;;;;5051505;28;20492;-56
2021/05/12 00:10:10;;;;;;;1.53;1.43;;;14.60;99.90;;;;;;5050227;28;20415;-62
2021/05/12 00:12:36;;;;;;;1.80;1.70;;;14.60;99.90;;;;;;5054014;28;20645;-61
2021/05/12 00:15:08;;;;;;;1.77;1.67;;;14.60;99.90;;;;;;5053182;28;20450;-62
2021/05/12 00:17:34;;;;;;;1.83;1.73;;;14.60;99.90;;;;;;5053211;28;20870;-61
2021/05/12 00:20:01;;;;;;;2.43;2.20;;;14.60;99.90;;;;;;5053892;28;20404;-63
2021/05/12 00:22:48;;;;;;;3.07;2.03;;;14.50;99.90;;;;;;5053657;28;20408;-63
2021/05/12 00:25:14;;;;;;;2.17;1.33;;;14.40;99.90;;;;;;5053425;28;20852;-62
2021/05/12 00:27:40;;;;;;;2.90;1.93;;;14.20;99.90;;;;;;5053110;28;20434;-62
2021/05/12 00:30:09;;;;;;;2.20;2.00;;;14.00;99.90;;;;;;5050118;28;20422;-61
2021/05/12 00:32:35;;;;;;;3.53;1.90;;;13.90;99.90;;;;;;5053446;28;20461;-62
2021/05/12 00:35:00;;;;;;;2.50;1.67;;;13.80;99.90;;;;;;5053990;28;20408;-62
2021/05/12 00:37:26;;;;;;;2.60;2.30;;;13.70;99.90;;;;;;5053320;28;20209;-61
2021/05/12 00:39:52;;;;;;;2.97;1.90;;;13.60;99.90;;;;;;5053458;28;20668;-61
2021/05/12 00:42:17;;;;;;;2.23;2.03;;;13.40;99.90;;;;;;5054006;28;20233;-62
2021/05/12 00:44:43;;;;;;;2.00;1.73;;;13.60;99.90;;;;;;5053408;28;20251;-63
2021/05/12 00:47:09;;;;;;;2.30;2.10;;;13.70;99.90;;;;;;5053778;28;20705;-61
2021/05/12 00:49:35;;;;;;;2.33;2.13;;;13.70;99.90;;;;;;5046051;28;20665;-62
2021/05/12 00:52:01;;;;;;;3.10;1.97;;;13.60;99.90;;;;;;5053772;28;20233;-61
2021/05/12 00:54:27;;;;;;;3.60;2.37;;;13.50;99.90;;;;;;5058364;28;20610;-62
2021/05/12 00:56:53;;;;;;;2.57;1.97;;;13.30;99.90;;;;;;5073279;28;20431;-62
2021/05/12 00:59:19;;;;;;;2.50;2.30;;;13.30;99.90;;;;;;5090748;23;20227;-59
2021/05/12 01:01:45;;;;;;;2.37;2.00;;;13.20;99.90;;;;;;5073509;28;20177;-60
2021/05/12 01:04:10;;;;;;;2.40;2.20;;;13.00;99.90;;;;;;5073161;28;20406;-60
2021/05/12 01:06:38;;;;;;;2.53;1.93;;;13.10;99.90;;;;;;5072136;28;20194;-60
2021/05/12 01:09:08;;;;;;;2.73;1.40;;;13.10;99.90;;;;;;5060876;28;20192;-60
2021/05/12 01:11:34;;;;;;;2.23;2.03;;;13.10;99.90;;;;;;5052957;28;20448;-60
2021/05/12 01:14:01;;;;;;;2.70;1.77;;;13.00;99.90;;;;;;5052545;28;20409;-60
2021/05/12 01:16:27;;;;;;;2.90;1.97;;;12.90;99.90;;;;;;5052881;28;20953;-60
2021/05/12 01:18:52;;;;;;;1.87;1.60;;;13.10;99.90;;;;;;5059756;28;20527;-60
2021/05/12 01:21:18;;;;;;;1.83;1.40;;;13.00;99.90;;;;;;5072978;28;20404;-59
2021/05/12 01:23:47;;;;;;;1.90;1.40;;;12.90;99.90;;;;;;5072993;28;20172;-61
2021/05/12 01:26:22;;;;;;;5.87;2.03;;;12.90;99.90;;;;;;5072752;28;20173;-60
2021/05/12 01:28:50;;;;;;;2.30;1.30;;;13.00;99.90;;;;;;5061619;28;20443;-60
2021/05/12 01:31:20;;;;;;;3.53;1.70;;;12.90;99.90;;;;;;5057054;28;20923;-60
2021/05/12 01:33:47;;;;;;;3.37;1.70;;;12.90;99.90;;;;;;5057317;28;20480;-60
2021/05/12 01:36:13;;;;;;;1.30;1.20;;;12.80;99.90;;;;;;5056418;28;20483;-61
2021/05/12 01:38:42;;;;;;;2.73;1.63;;;12.80;99.90;;;;;;5056553;28;20493;-61
2021/05/12 01:41:08;;;;;;;5.70;1.70;;;12.90;99.90;;;;;;5057086;28;20422;-61
2021/05/12 01:43:35;;;;;;;2.63;1.43;;;12.90;99.90;;;;;;5056292;28;20403;-60
2021/05/12 01:46:00;;;;;;;2.83;1.47;;;12.90;99.90;;;;;;5056878;28;20405;-61
2021/05/12 01:48:29;;;;;;;4.10;1.90;;;12.90;99.90;;;;;;5068703;28;20802;-61
2021/05/12 01:50:55;;;;;;;1.60;1.50;;;12.90;99.90;;;;;;5076258;28;20303;-61
2021/05/12 01:53:22;;;;;;;2.87;1.73;;;13.00;99.90;;;;;;5076084;28;20491;-61
2021/05/12 01:55:48;;;;;;;3.50;2.50;;;12.70;99.90;;;;;;5076260;28;20173;-61
2021/05/12 01:58:14;;;;;;;2.10;1.73;;;12.70;99.90;;;;;;5075923;28;20855;-61
2021/05/12 02:00:44;;;;;;;4.03;1.80;;;12.70;99.90;;;;;;5076442;28;20466;-61
2021/05/12 02:03:11;;;;;;;5.47;2.50;;;12.70;99.90;;;;;;5076028;28;20400;-61
2021/05/12 02:05:39;;;;;;;2.10;2.00;;;12.60;99.90;;;;;;5076126;28;20420;-61
2021/05/12 02:08:09;;;;;;;3.10;2.57;;;12.70;99.90;;;;;;5075763;28;20504;-61
2021/05/12 02:10:36;;;;;;;2.80;2.43;;;12.50;99.90;;;;;;5075961;28;20804;-60
2021/05/12 02:13:02;;;;;;;4.77;3.20;;;12.60;99.90;;;;;;5075590;28;20411;-61
2021/05/12 02:15:28;;;;;;;3.07;2.73;;;12.60;99.90;;;;;;5075909;28;20495;-61
2021/05/12 02:17:54;;;;;;;5.03;2.87;;;12.60;99.90;;;;;;5075942;28;20547;-60
2021/05/12 02:20:23;;;;;;;4.57;3.40;;;12.70;99.90;;;;;;5075770;28;20237;-61
2021/05/12 02:22:48;;;;;;;3.70;2.80;;;12.70;99.90;;;;;;5075578;28;20167;-60
2021/05/12 02:25:15;;;;;;;2.83;2.63;;;12.70;99.90;;;;;;5075700;28;20491;-60
2021/05/12 02:27:40;;;;;;;3.20;2.90;;;12.70;99.90;;;;;;5075603;28;20208;-60
2021/05/12 02:30:08;;;;;;;2.97;2.60;;;12.70;99.90;;;;;;5055611;28;20414;-60
2021/05/12 02:32:34;;;;;;;5.80;3.40;;;12.60;99.90;;;;;;5056520;28;20583;-60
2021/05/12 02:35:00;;;;;;;3.07;2.77;;;12.70;99.90;;;;;;5056572;28;20757;-60
2021/05/12 02:37:26;;;;;;;3.53;3.20;;;12.70;99.90;;;;;;5055259;28;20402;-60
2021/05/12 02:39:53;;;;;;;8.40;3.50;;;12.90;99.90;;;;;;5054971;28;20460;-60
2021/05/12 02:42:19;;;;;;;4.00;3.33;;;12.90;99.90;;;;;;5055325;28;20547;-60
2021/05/12 02:44:45;;;;;;;4.33;3.23;;;12.60;99.90;;;;;;5055325;28;20409;-60
2021/05/12 02:47:11;;;;;;;3.40;3.10;;;12.60;99.90;;;;;;5055560;28;20898;-60
2021/05/12 02:49:37;;;;;;;3.87;3.10;;;12.50;99.90;;;;;;5055154;28;20271;-61
2021/05/12 02:52:03;;;;;;;4.53;3.60;;;12.50;99.90;;;;;;5055161;28;20448;-60
2021/05/12 02:54:29;;;;;;;4.10;3.33;;;12.50;99.90;;;;;;5055028;28;20408;-61
2021/05/12 02:56:55;;;;;;;4.87;3.97;;;12.70;99.90;;;;;;5059538;28;20409;-61
2021/05/12 02:59:21;;;;;;;3.70;3.40;;;12.70;99.90;;;;;;5072366;28;20633;-61
2021/05/12 03:01:46;;;;;;;4.10;3.80;;;12.70;99.90;;;;;;5074845;28;20462;-61
2021/05/12 03:04:12;;;;;;;4.07;3.73;;;12.40;99.90;;;;;;5074162;28;20177;-61
2021/05/12 03:06:38;;;;;;;4.33;3.90;;;12.60;99.90;;;;;;5074957;28;20170;-61
2021/05/12 03:09:06;;;;;;;4.70;4.20;;;12.50;99.90;;;;;;5074804;28;20424;-61
2021/05/12 03:11:32;;;;;;;5.33;4.83;;;12.60;99.90;;;;;;5074737;28;20478;-61
2021/05/12 03:13:58;;;;;;;6.17;4.63;;;12.60;99.90;;;;;;5074710;28;20407;-61
2021/05/12 03:16:24;;;;;;;5.30;4.60;;;12.60;99.90;;;;;;5074956;28;20398;-62
2021/05/12 03:18:50;;;;;;;5.33;4.80;;;12.80;99.90;;;;;;5074899;28;20181;-61
2021/05/12 03:21:16;;;;;;;5.70;4.70;;;12.80;99.90;;;;;;5075142;28;20530;-61
2021/05/12 03:23:41;;;;;;;8.63;6.00;;;12.70;99.90;;;;;;5074690;28;20546;-61
2021/05/12 03:26:07;;;;;;;5.50;5.00;;;12.80;99.90;;;;;;5074546;28;20400;-61
2021/05/12 03:28:33;;;;;;;5.93;5.30;;;12.90;99.90;;;;;;5067253;28;20187;-61
2021/05/12 03:30:58;;;;;;;7.20;4.97;;;12.80;99.90;;;;;;5055119;28;22130;-60
2021/05/12 03:33:24;;;;;;;6.03;5.47;;;12.90;99.90;;;;;;5054813;28;20200;-59
2021/05/12 03:35:50;;;;;;;9.27;6.50;;;12.90;99.90;;;;;;5054690;28;20190;-60
2021/05/12 03:38:15;;;;;;;10.60;6.50;;;12.70;99.90;;;;;;5054383;28;20463;-60
2021/05/12 03:40:42;;;;;;;9.00;6.27;;;12.50;99.90;;;;;;5054560;28;20223;-60
2021/05/12 03:43:09;;;;;;;9.33;7.07;;;12.70;99.90;;;;;;5054375;28;20529;-60
2021/05/12 03:45:34;;;;;;;8.30;5.80;;;12.80;99.90;;;;;;5054139;28;20406;-59
2021/05/12 03:48:00;;;;;;;9.60;6.30;;;12.90;99.90;;;;;;5054656;28;20479;-60
2021/05/12 03:50:28;;;;;;;11.17;8.40;;;12.90;99.90;;;;;;5054242;28;20170;-59
2021/05/12 03:52:54;;;;;;;8.23;7.30;;;12.80;99.90;;;;;;5065463;28;20193;-60
2021/05/12 03:55:20;;;;;;;7.50;6.77;;;12.80;99.90;;;;;;5074253;28;20406;-61
2021/05/12 03:57:46;;;;;;;11.83;7.50;;;12.80;99.90;;;;;;5073899;28;20415;-61
2021/05/12 04:00:13;;;;;;;8.03;7.17;;;12.80;99.90;;;;;;5073999;28;20167;-60
2021/05/12 04:02:42;;;;;;;9.40;8.20;;;12.90;99.90;;;;;;5073706;28;20178;-61
2021/05/12 04:05:09;;;;;;;10.73;7.33;;;13.10;99.90;;;;;;5073996;28;20418;-61
2021/05/12 04:07:35;;;;;;;13.67;7.80;;;13.10;99.90;;;;;;5073520;28;20414;-60
2021/05/12 04:10:02;;;;;;;8.80;7.27;;;13.10;99.90;;;;;;5073885;28;20461;-60
2021/05/12 04:12:27;;;;;;;12.23;8.57;;;13.20;99.90;;;;;;5069688;28;20198;-61
2021/05/12 04:14:53;;;;;;;10.40;9.30;;;13.10;99.90;;;;;;5059774;28;20462;-58
2021/05/12 04:17:18;;;;;;;9.57;8.57;;;13.10;99.90;;;;;;5073585;28;20202;-60
2021/05/12 04:19:44;;;;;;;8.67;7.83;;;13.10;99.90;;;;;;5073453;28;20194;-61
2021/05/12 04:22:10;;;;;;;12.70;7.60;;;13.00;99.90;;;;;;5073490;28;20178;-60
2021/05/12 04:24:35;;;;;;;10.10;8.63;;;13.10;99.90;;;;;;5073444;28;20182;-60
2021/05/12 04:27:02;;;;;;;12.90;8.63;;;13.10;99.90;;;;;;5073697;28;20181;-61
2021/05/12 04:29:28;;;;;;;9.63;8.63;;;13.20;99.90;;;;;;5073329;28;20199;-61
2021/05/12 04:31:54;;;;;;;10.50;8.00;;;13.20;99.90;;;;;;5073363;28;20526;-60
2021/05/12 04:34:20;;;;;;;9.40;7.80;;;13.10;99.90;;;;;;5073392;28;20166;-60
2021/05/12 04:36:45;;;;;;;8.93;8.00;;;13.10;99.90;;;;;;5073430;28;20161;-61
2021/05/12 04:39:11;;;;;;;9.60;7.23;;;13.00;99.90;;;;;;5073248;28;20697;-60
2021/05/12 04:41:37;;;;;;;8.60;6.93;;;13.10;99.90;;;;;;5073251;28;20546;-61
2021/05/12 04:44:04;;;;;;;8.40;6.63;;;13.00;99.90;;;;;;5072936;28;20566;-61
2021/05/12 04:46:29;;;;;;;7.37;6.00;;;13.00;99.90;;;;;;5073474;28;20178;-61
2021/05/12 04:48:55;;;;;;;8.40;7.23;;;13.10;99.90;;;;;;5073397;28;20962;-61
2021/05/12 04:51:21;;;;;;;8.30;6.53;;;13.20;99.90;;;;;;5073248;28;20200;-61
2021/05/12 04:53:47;;;;;;;11.47;7.90;;;13.30;99.90;;;;;;5073187;28;20221;-60
2021/05/12 04:56:14;;;;;;;7.83;6.37;;;13.00;99.90;;;;;;5073347;28;20408;-58
2021/05/12 04:58:40;;;;;;;8.20;7.40;;;12.90;99.90;;;;;;5065247;28;20213;-59
2021/05/12 05:01:05;;;;;;;6.93;6.00;;;13.00;99.90;;;;;;5053206;28;20420;-59
2021/05/12 05:03:31;;;;;;;8.57;6.63;;;13.10;99.90;;;;;;5055180;28;20174;-61
2021/05/12 05:05:58;;;;;;;8.70;6.40;;;13.00;99.90;;;;;;5059789;28;20174;-60
2021/05/12 05:08:27;;;;;;;8.43;7.43;;;12.90;99.90;;;;;;5059336;28;20432;-61
2021/05/12 05:10:53;;;;;;;10.43;6.80;;;13.00;99.90;;;;;;5059414;28;20425;-61
2021/05/12 05:13:19;;;;;;;6.63;6.00;;;12.80;99.90;;;;;;5041782;28;20401;-60
2021/05/12 05:15:45;;;;;;;7.77;5.90;;;12.90;99.90;;;;;;5059397;28;20178;-59
2021/05/12 05:18:12;;;;;;;7.93;5.80;;;13.00;99.90;;;;;;5059535;28;20194;-59
2021/05/12 05:20:38;;;;;;;6.50;5.07;;;13.00;99.90;;;;;;5061044;28;20406;-60
2021/05/12 05:23:07;;;;;;;5.90;5.40;;;13.10;99.90;;;;;;5059927;28;20751;-60
2021/05/12 05:25:33;;;;;;;9.73;5.33;;;12.90;99.90;;;;;;5041705;28;20829;-61
2021/05/12 05:27:59;;;;;;;4.80;4.30;;;12.90;99.90;;;;;;5059291;28;20425;-61
2021/05/12 05:30:25;;;;;;;7.73;5.10;;;13.20;99.90;;;;;;5059068;28;20419;-61
2021/05/12 05:32:50;;;;;;;5.47;4.97;;;13.30;99.90;;;;;;5059260;28;20193;-61
2021/05/12 05:35:16;;;;;;;7.40;4.97;;;13.30;99.90;;;;;;5059333;28;20412;-60
2021/05/12 05:37:42;;;;;;;13.40;5.80;;;13.50;99.90;;;;;;5059247;28;20177;-61
2021/05/12 05:40:08;;;;;;;5.03;4.53;;;13.50;99.90;;;;;;5059332;28;20194;-60
2021/05/12 05:42:33;;;;;;;6.17;4.70;;;13.10;99.90;;;;;;5059153;28;20665;-61
2021/05/12 05:44:59;;;;;;;7.03;5.80;;;12.90;99.90;;;;;;5059233;28;20412;-61
2021/05/12 05:47:26;;;;;;;6.33;4.70;;;13.10;99.90;;;;;;5059427;28;20704;-61
2021/05/12 05:49:52;;;;;;;6.00;4.83;;;13.00;99.90;;;;;;5059313;28;20285;-61
2021/05/12 05:52:18;;;;;;;5.53;4.80;;;13.20;99.90;;;;;;5058852;28;20447;-60
2021/05/12 05:54:44;;;;;;;6.00;5.40;;;13.40;99.90;;;;;;5059047;28;20409;-61
2021/05/12 05:57:15;;;;;;;7.67;4.90;;;13.50;99.90;;;;;;5062869;28;20204;-61
2021/05/12 05:59:41;;;;;;;6.00;4.60;;;13.50;99.90;;;;;;5079174;28;20206;-61
2021/05/12 06:02:07;;;;;;;6.47;4.50;;;13.40;99.90;;;;;;5079446;28;20814;-61
2021/05/12 06:04:33;;;;;;;5.67;5.07;;;13.50;99.90;;;;;;5079281;28;20452;-60
2021/05/12 06:06:58;;;;;;;5.70;5.13;;;13.30;99.90;;;;;;5078954;28;20408;-60
2021/05/12 06:09:24;;;;;;;6.10;5.00;;;13.40;99.90;;;;;;5079014;28;20193;-59
2021/05/12 06:11:50;;;;;;;7.20;5.03;;;13.40;99.90;;;;;;5079167;28;20281;-61
2021/05/12 06:14:17;;;;;;;5.70;4.50;;;13.70;99.90;;;;;;5078881;28;20195;-61
2021/05/12 06:16:43;;;;;;;5.10;4.37;;;13.40;99.90;;;;;;5074950;28;20408;-61
2021/05/12 06:19:08;;;;;;;5.70;5.10;;;13.30;99.90;;;;;;5075944;28;20422;-61
2021/05/12 06:21:34;;;;;;;9.53;4.60;;;13.50;99.90;;;;;;5076145;28;20178;-61
2021/05/12 06:23:59;;;;;;;5.97;4.60;;;13.50;99.90;;;;;;5075643;28;20748;-61
2021/05/12 06:26:25;;;;;;;4.77;3.97;;;13.40;99.90;;;;;;5075522;28;20158;-61
2021/05/12 06:28:51;;;;;;;4.70;3.40;;;13.40;99.90;;;;;;5065551;28;20293;-61
2021/05/12 06:31:16;;;;;;;4.07;3.73;;;13.20;99.90;;;;;;5055726;28;20202;-61
2021/05/12 06:33:45;;;;;;;5.83;4.00;;;13.20;99.90;;;;;;5055744;28;20174;-61
2021/05/12 06:36:11;;;;;;;4.40;4.00;;;13.30;99.90;;;;;;5055738;28;20535;-61
2021/05/12 06:38:37;;;;;;;6.20;3.90;;;13.20;99.90;;;;;;5055219;28;20419;-61
2021/05/12 06:41:03;;;;;;;5.63;3.50;;;13.20;99.90;;;;;;5055299;28;20412;-61
2021/05/12 06:43:29;;;;;;;4.77;3.13;;;13.40;99.90;;;;;;5055701;28;20166;-61
2021/05/12 06:45:55;;;;;;;4.80;3.23;;;13.20;99.90;;;;;;5055051;28;20937;-61
2021/05/12 06:48:21;;;;;;;6.07;3.43;;;13.30;99.90;;;;;;5055175;28;20190;-61
2021/05/12 06:50:47;;;;;;;4.70;3.50;;;13.40;99.90;;;;;;5055045;28;20442;-61
2021/05/12 06:53:13;;;;;;;4.33;2.80;;;13.60;99.90;;;;;;5055138;28;20182;-61
2021/05/12 06:55:39;;;;;;;5.23;3.40;;;13.70;99.90;;;;;;5054982;28;20417;-61
2021/05/12 07:00:38;;;;;;;3.13;2.70;;;13.30;99.90;;;;;;5052726;28;20477;-60
2021/05/12 07:03:04;;;;;;;6.33;3.30;;;13.30;99.90;;;;;;5055549;28;20401;-61
2021/05/12 07:05:30;;;;;;;5.97;3.20;;;13.50;99.90;;;;;;5054283;28;20270;-63
2021/05/12 07:07:55;;;;;;;3.30;3.00;;;13.60;99.90;;;;;;5054868;28;20633;-62
2021/05/12 07:10:21;;;;;;;3.30;2.90;;;13.50;99.90;;;;;;5037098;28;20189;-59
2021/05/12 07:12:46;;;;;;;3.30;3.00;;;13.50;99.90;;;;;;5035141;28;20187;-60
2021/05/12 07:15:13;;;;;;;4.97;2.90;;;13.50;99.90;;;;;;5035193;28;20166;-59
2021/05/12 07:17:40;;;;;;;3.10;2.73;;;13.60;99.90;;;;;;5035335;28;20270;-59
2021/05/12 07:20:06;;;;;;;3.20;2.90;;;13.90;99.90;;;;;;5035194;28;20421;-58
2021/05/12 07:22:32;;;;;;;4.63;3.17;;;14.00;99.90;;;;;;5035030;28;20800;-59
2021/05/12 07:24:59;;;;;;;3.23;2.97;;;13.60;99.90;;;;;;5035029;28;20421;-56
2021/05/12 07:27:25;;;;;;;3.27;2.97;;;13.60;99.90;;;;;;5034880;28;20197;-58
2021/05/12 07:29:50;;;;;;;2.70;2.40;;;13.50;99.90;;;;;;5031278;28;20518;-61
2021/05/12 07:32:16;;;;;;;3.50;2.90;;;13.70;99.90;;;;;;5003381;28;20195;-61
2021/05/12 07:34:42;;;;;;;6.37;3.50;;;13.60;99.90;;;;;;5034571;28;20160;-57
2021/05/12 07:37:08;;;;;;;4.93;3.20;;;13.60;99.90;;;;;;5035060;28;20174;-61
2021/05/12 07:39:34;;;;;;;7.17;3.90;;;13.80;99.90;;;;;;5034538;28;20793;-60
2021/05/12 07:42:03;;;;;;;4.77;2.90;;;13.40;99.90;;;;;;5034693;28;20410;-61
2021/05/12 07:44:29;;;;;;;4.40;2.60;;;13.40;99.90;;;;;;5034432;28;20464;-61
2021/05/12 07:46:55;;;;;;;3.93;3.10;;;13.40;99.90;;;;;;5034619;28;20406;-60
2021/05/12 07:49:21;;;;;;;4.70;2.70;;;13.40;99.90;;;;;;5034728;28;20518;-60
2021/05/12 07:51:46;;;;;;;5.50;3.17;;;13.70;99.90;;;;;;5034367;28;20540;-61
2021/05/12 07:54:12;;;;;;;7.30;2.80;;;13.70;99.90;;;;;;5034399;28;20601;-61
2021/05/12 07:56:38;;;;;;;3.33;3.03;;;13.70;99.90;;;;;;5034351;28;20167;-60
2021/05/12 07:59:03;;;;;;;4.07;2.73;;;13.70;99.90;;;;;;5034191;28;20707;-59
2021/05/12 08:01:32;;;;;;;4.27;3.23;;;13.80;99.90;;;;;;5027807;28;20202;-60
2021/05/12 08:03:58;;;;;;;4.97;3.13;;;13.40;99.90;;;;;;5021307;28;20261;-59
2021/05/12 08:06:24;;;;;;;4.00;2.80;;;13.40;99.90;;;;;;5033976;28;20828;-59
2021/05/12 08:08:49;;;;;;;3.60;3.30;;;13.40;99.90;;;;;;5036156;28;20280;-62
2021/05/12 08:11:15;;;;;;;3.93;3.30;;;13.10;99.90;;;;;;5033838;28;20191;-62
2021/05/12 08:13:40;;;;;;;3.17;2.67;;;13.30;99.90;;;;;;5033896;28;20171;-61
2021/05/12 08:16:06;;;;;;;7.30;2.83;;;13.50;99.90;;;;;;5034530;28;20292;-62
2021/05/12 08:18:32;;;;;;;4.40;3.10;;;13.70;99.90;;;;;;5034293;28;20249;-63
2021/05/12 08:20:57;;;;;;;4.07;3.07;;;13.60;99.90;;;;;;5033860;28;20167;-59
2021/05/12 08:23:24;;;;;;;5.63;3.07;;;13.50;99.90;;;;;;5033839;28;20178;-58
2021/05/12 08:25:50;;;;;;;4.30;3.00;;;13.50;99.90;;;;;;5033958;28;20535;-60
2021/05/12 08:28:17;;;;;;;6.33;3.10;;;13.50;99.90;;;;;;5033715;28;20411;-62
2021/05/12 08:30:46;;;;;;;5.90;2.73;;;13.20;99.90;;;;;;5013812;28;20394;-60
2021/05/12 08:33:13;;;;;;;3.80;3.20;;;13.30;99.90;;;;;;5014154;28;20457;-61
2021/05/12 08:35:41;;;;;;;3.63;2.80;;;13.50;99.90;;;;;;5014167;28;20445;-62
2021/05/12 08:38:09;;;;;;;6.53;4.70;;;13.40;99.90;;;;;;5013752;28;20406;-62
2021/05/12 08:40:34;;;;;;;3.20;2.83;;;13.40;99.90;;;;;;5014089;28;20423;-61
2021/05/12 08:43:04;;;;;;;3.33;3.03;;;13.30;99.90;;;;;;5014222;28;20753;-59
2021/05/12 08:45:30;;;;;;;6.00;2.60;;;13.30;99.90;;;;;;5013825;28;20218;-61
2021/05/12 08:47:57;;;;;;;3.40;2.60;;;13.40;99.90;;;;;;5013885;28;20436;-61
2021/05/12 08:50:24;;;;;;;4.50;3.30;;;13.30;99.90;;;;;;5014211;28;20557;-59
2021/05/12 08:52:51;;;;;;;4.70;3.17;;;13.50;99.90;;;;;;5013731;28;20448;-60
2021/05/12 08:55:17;;;;;;;3.27;3.00;;;13.80;99.90;;;;;;5014313;28;20479;-61
2021/05/12 08:57:43;;;;;;;3.27;2.97;;;14.00;99.90;;;;;;5013790;28;20404;-60
2021/05/12 09:00:10;;;;;;;7.27;2.83;;;13.80;99.90;;;;;;5028446;28;20461;-62
2021/05/12 09:02:36;;;;;;;3.73;2.93;;;13.40;99.90;;;;;;5033463;28;20402;-59
2021/05/12 09:05:07;;;;;;;3.37;2.87;;;13.30;99.90;;;;;;5033950;28;20775;-55
2021/05/12 09:07:33;;;;;;;3.20;3.00;;;13.30;99.90;;;;;;5033338;28;20403;-58
2021/05/12 09:10:00;;;;;;;4.53;3.90;;;13.20;99.90;;;;;;5033494;28;20434;-60
2021/05/12 09:12:27;;;;;;;5.70;3.60;;;13.30;99.90;;;;;;5032980;28;20816;-58
2021/05/12 09:14:56;;;;;;;5.03;3.23;;;13.30;99.90;;;;;;5033284;28;20402;-58
2021/05/12 09:17:32;;;;;;;4.20;3.10;;;13.40;99.90;;;;;;5033716;28;20782;-58
2021/05/12 09:19:58;;;;;;;4.80;3.13;;;13.50;99.90;;;;;;5033136;28;20417;-62
2021/05/12 09:22:24;;;;;;;3.73;2.90;;;13.60;99.90;;;;;;5033231;28;20436;-61
2021/05/12 09:25:05;;;;;;;3.40;3.10;;;13.70;99.90;;;;;;5032696;28;20405;-59
2021/05/12 09:27:31;;;;;;;7.43;3.10;;;13.80;99.90;;;;;;5033107;28;20160;-60
2021/05/12 09:30:02;;;;;;;4.63;2.93;;;13.80;99.90;;;;;;5032630;28;20492;-59
2021/05/12 09:32:42;;;;;;;3.23;2.93;;;13.70;99.90;;;;;;5022475;28;20205;-60
2021/05/12 09:35:08;;;;;;;4.53;3.10;;;13.80;99.90;;;;;;5032996;28;20400;-56
2021/05/12 09:37:37;;;;;;;4.90;3.47;;;13.80;99.90;;;;;;5033630;28;20505;-56
2021/05/12 09:40:11;;;;;;;4.30;2.50;;;13.70;99.90;;;;;;5032887;28;20506;-60
2021/05/12 09:42:38;;;;;;;4.73;3.17;;;13.80;99.90;;;;;;5032993;28;20427;-60
2021/05/12 09:45:12;;;;;;;6.20;3.10;;;14.10;99.90;;;;;;5033176;28;20416;-60
2021/05/12 09:47:39;;;;;;;4.07;3.00;;;13.80;99.90;;;;;;5032818;28;20404;-58
2021/05/12 09:50:17;;;;;;;4.83;3.13;;;13.70;99.90;;;;;;5033125;28;20510;-60
2021/05/12 09:52:43;;;;;;;2.80;1.90;;;13.90;99.90;;;;;;5036565;28;20438;-60
2021/05/12 09:55:10;;;;;;;4.17;2.60;;;14.10;99.90;;;;;;5036819;28;20409;-57
2021/05/12 09:57:37;;;;;;;4.07;3.03;;;14.40;99.90;;;;;;5036773;28;20460;-59
2021/05/12 10:00:26;;;;;;;4.40;3.70;;;14.30;99.90;;;;;;5036194;28;20832;-60
2021/05/12 10:02:52;;;;;;;3.40;3.10;;;14.00;99.90;;;;;;5036767;28;20445;-60
2021/05/12 10:05:18;;;;;;;2.97;2.50;;;13.80;99.90;;;;;;5036575;28;20494;-58
2021/05/12 10:07:51;;;;;;;4.47;3.03;;;13.90;99.90;;;;;;5036507;28;20174;-57
2021/05/12 10:10:40;;;;;;;3.93;3.27;;;14.10;99.90;;;;;;5036974;28;20234;-56
2021/05/12 10:13:06;;;;;;;4.20;2.70;;;14.30;99.90;;;;;;5036674;28;20509;-59
2021/05/12 10:15:32;;;;;;;3.20;2.80;;;14.40;99.90;;;;;;5036146;28;20399;-60
2021/05/12 10:17:58;;;;;;;6.43;3.90;;;14.40;99.90;;;;;;5027269;28;20410;-59
2021/05/12 10:20:25;;;;;;;5.07;3.23;;;14.50;99.90;;;;;;5024238;28;20446;-57
2021/05/12 10:22:54;;;;;;;4.83;2.93;;;14.70;99.90;;;;;;5015025;28;20423;-57
2021/05/12 10:25:21;;;;;;;3.47;2.50;;;14.70;99.90;;;;;;5034415;28;20415;-60
2021/05/12 10:27:49;;;;;;;5.50;3.13;;;14.60;99.90;;;;;;5026266;28;20464;-58
2021/05/12 10:30:16;;;;;;;3.80;2.97;;;14.60;99.90;;;;;;5034232;28;20530;-56
2021/05/12 10:32:53;;;;;;;4.80;2.90;;;14.30;99.90;;;;;;5032501;28;20446;-58
2021/05/12 10:35:32;;;;;;;6.23;3.07;;;14.30;99.90;;;;;;5031098;28;20419;-59
2021/05/12 10:37:59;;;;;;;5.30;3.20;;;14.40;99.90;;;;;;5034571;28;20438;-59
2021/05/12 10:40:31;;;;;;;5.70;3.10;;;14.40;99.90;;;;;;5028015;28;20432;-58
2021/05/12 10:43:09;;;;;;;7.23;3.57;;;14.40;99.90;;;;;;5034414;28;20439;-59
2021/05/12 10:48:28;;;;;;;4.97;3.40;;;14.20;99.90;;;;;;5034017;28;20416;-59
2021/05/12 10:50:54;;;;;;;3.33;3.03;;;14.20;99.90;;;;;;5034986;28;20415;-59
2021/05/12 10:53:21;;;;;;;4.63;3.20;;;14.20;99.90;;;;;;5034248;28;20826;-56
2021/05/12 10:55:55;;;;;;;7.63;3.50;;;14.40;99.90;;;;;;5027527;28;20644;-59
2021/05/12 10:58:22;;;;;;;4.83;2.70;;;14.40;99.90;;;;;;5029702;28;20414;-59
2021/05/12 11:01:14;;;;;;;3.90;2.90;;;14.50;99.90;;;;;;5033818;28;20770;-60
2021/05/12 11:03:52;;;;;;;4.60;3.17;;;14.20;99.90;;;;;;5030424;28;20429;-60
2021/05/12 11:06:25;;;;;;;4.80;2.93;;;14.00;99.90;;;;;;5032746;28;20419;-58
2021/05/12 11:09:11;;;;;;;5.30;3.40;;;14.20;99.90;;;;;;5034566;28;20817;-62
2021/05/12 11:11:49;;;;;;;5.70;3.03;;;14.20;99.90;;;;;;5033792;28;20452;-59
2021/05/12 11:14:29;;;;;;;3.80;3.03;;;14.10;99.90;;;;;;5033846;28;20499;-60
2021/05/12 11:17:21;;;;;;;4.83;2.93;;;14.20;99.90;;;;;;5031182;28;20404;-59
2021/05/12 11:19:56;;;;;;;4.13;2.70;;;14.30;99.90;;;;;;5033986;28;20888;-59
2021/05/12 11:25:37;;;;;;;6.60;3.30;;;15.00;99.90;;;;;;5026505;28;20436;-57
2021/05/12 11:33:26;;;;;;;5.20;2.77;;;15.00;99.90;;;;;;5033003;28;20205;-54
2021/05/12 11:35:56;;;;;;;5.00;2.70;;;14.90;99.90;;;;;;5033833;28;20412;-58
2021/05/12 11:38:22;;;;;;;4.13;2.77;;;15.40;99.90;;;;;;5033147;28;20405;-58
2021/05/12 11:41:08;;;;;;;3.70;2.43;;;15.60;99.90;;;;;;5028769;28;20795;-58
2021/05/12 11:43:42;;;;;;;2.87;2.50;;;15.80;99.90;;;;;;5034291;28;20274;-58
2021/05/12 11:46:28;;;;;;;3.47;2.60;;;16.20;99.90;;;;;;5032778;28;20411;-56
2021/05/12 11:48:56;;;;;;;3.33;2.60;;;16.10;99.90;;;;;;5033822;28;20431;-58
2021/05/12 11:51:34;;;;;;;4.43;3.40;;;16.30;99.90;;;;;;5033029;28;20452;-58
2021/05/12 11:54:00;;;;;;;6.50;3.40;;;16.10;99.90;;;;;;5032871;28;20458;-58
2021/05/12 11:56:27;;;;;;;3.57;2.57;;;16.10;99.90;;;;;;5014942;28;20433;-58
2021/05/12 11:58:58;;;;;;;5.23;3.03;;;15.90;99.90;;;;;;5032715;28;20454;-57
2021/05/12 12:01:24;;;;;;;6.73;4.00;;;16.20;99.90;;;;;;5032836;28;20421;-58
2021/05/12 12:04:12;;;;;;;4.03;2.87;;;16.50;99.90;;;;;;5039461;28;20411;-59
2021/05/12 12:06:45;;;;;;;4.57;2.73;;;16.30;99.90;;;;;;5036861;28;20425;-57
2021/05/12 12:09:12;;;;;;;3.57;2.37;;;16.40;99.90;;;;;;5032296;28;20429;-58
2021/05/12 12:11:38;;;;;;;6.63;2.80;;;16.60;99.90;;;;;;5032734;28;20452;-59
2021/05/12 12:14:06;;;;;;;4.17;2.87;;;16.60;99.90;;;;;;5017395;28;20876;-57
2021/05/12 12:16:34;;;;;;;5.17;2.73;;;16.40;99.90;;;;;;5026983;28;20916;-55
2021/05/12 12:19:09;;;;;;;4.63;2.30;;;16.60;99.90;;;;;;5032053;28;20514;-58
2021/05/12 12:21:35;;;;;;;3.47;2.13;;;16.80;99.90;;;;;;5014347;28;20433;-59
2021/05/12 12:24:13;;;;;;;3.83;2.40;;;17.30;99.90;;;;;;5031858;28;20409;-57
2021/05/12 12:26:43;;;;;;;3.73;3.00;;;17.50;99.90;;;;;;5031826;28;20243;-59
2021/05/12 12:29:10;;;;;;;3.03;2.70;;;17.30;99.90;;;;;;5009222;28;20440;-55
2021/05/12 12:31:41;;;;;;;7.60;2.87;;;17.30;99.90;;;;;;5019451;28;20448;-59
2021/05/12 12:34:13;;;;;;;3.93;2.73;;;17.40;99.90;;;;;;5026435;28;20948;-57
2021/05/12 12:36:50;;;;;;;4.97;2.47;;;17.50;99.90;;;;;;5031432;28;20411;-59
2021/05/12 12:39:16;;;;;;;3.57;2.57;;;17.60;99.90;;;;;;5029564;28;20428;-56
2021/05/12 12:41:52;;;;;;;3.00;2.63;;;17.50;99.90;;;;;;5031634;28;20451;-57
2021/05/12 12:44:20;;;;;;;6.20;2.37;;;17.50;99.90;;;;;;5020036;28;20417;-57
2021/05/12 12:46:57;;;;;;;4.17;2.67;;;17.70;99.90;;;;;;5033137;28;20414;-60
2021/05/12 12:49:38;;;;;;;3.63;2.63;;;17.20;99.90;;;;;;5027989;28;20474;-58
2021/05/12 12:52:14;;;;;;;2.70;2.20;;;17.30;99.90;;;;;;5032054;28;20457;-58
2021/05/12 12:54:50;;;;;;;3.77;2.43;;;17.20;99.90;;;;;;5032045;28;20406;-58
2021/05/12 12:57:17;;;;;;;4.10;2.40;;;17.30;99.90;;;;;;5026250;28;20761;-54
2021/05/12 13:00:01;;;;;;;4.83;3.03;;;17.00;99.90;;;;;;5072297;23;20558;-58
2021/05/12 13:02:27;;;;;;;4.80;2.77;;;16.80;99.90;;;;;;5070134;28;20785;-59